Time;durP1;ratioP1;P1;durP2;ratioP2;P2;SDS_P1;SDS_P2;PMS_P1;PMS_P2;Temp;Humidity;BMP_temperature;BMP_pressure;BME280_temperature;BME280_humidity;BME280_pressure;Samples;Min_cycle;Max_cycle;Signal;HPM_P1;HPM_P2
2021/04/29 00:01:29;;;;;;;6.43;4.60;;;;;;;;;;5072495;28;20210;-84
2021/04/29 00:03:55;;;;;;;5.30;4.80;;;;;;;;;;5055505;28;20199;-84
2021/04/29 00:06:22;;;;;;;5.17;4.77;;;;;;;;;;5055277;28;20269;-84
2021/04/29 00:08:49;;;;;;;6.00;5.40;;;;;;;;;;5055729;28;20237;-84
2021/04/29 00:11:15;;;;;;;6.20;5.67;;;;;;;;;;5055570;28;20658;-84
2021/04/29 00:13:41;;;;;;;5.80;5.40;;;;;;;;;;5055123;28;20257;-83
2021/04/29 00:16:07;;;;;;;6.60;6.00;;;;;;;;;;5055594;28;20229;-84
2021/04/29 00:18:33;;;;;;;6.13;5.63;;;;;;;;;;5055579;28;20234;-84
2021/04/29 00:20:59;;;;;;;6.40;5.80;;;;;;;;;;5073576;28;20202;-84
2021/04/29 00:23:26;;;;;;;6.80;6.20;;;;;;;;;;5055191;28;20662;-83
2021/04/29 00:25:53;;;;;;;6.97;6.03;;;;;;;;;;5055031;28;20218;-83
2021/04/29 00:28:20;;;;;;;8.33;6.53;;;;;;;;;;5055438;28;20233;-84
2021/04/29 00:30:46;;;;;;;7.00;6.40;;;;;;;;;;5055283;28;20686;-83
2021/04/29 00:33:12;;;;;;;7.20;6.50;;;;;;;;;;5055510;28;20245;-83
2021/04/29 00:35:38;;;;;;;7.83;7.13;;;;;;;;;;5055239;28;20233;-83
2021/04/29 00:38:05;;;;;;;7.80;6.80;;;;;;;;;;5055240;28;20557;-82
2021/04/29 00:40:31;;;;;;;7.33;6.70;;;;;;;;;;5073262;28;20171;-83
2021/04/29 00:42:58;;;;;;;7.13;6.50;;;;;;;;;;5056224;28;20221;-83
2021/04/29 00:45:24;;;;;;;7.33;6.73;;;;;;;;;;5075494;28;20658;-83
2021/04/29 00:47:51;;;;;;;7.27;6.33;;;;;;;;;;5059014;28;20190;-83
2021/04/29 00:50:18;;;;;;;7.43;6.40;;;;;;;;;;5076901;28;20179;-83
2021/04/29 00:52:44;;;;;;;7.83;6.20;;;;;;;;;;5058481;28;20261;-83
2021/04/29 00:55:10;;;;;;;7.27;6.57;;;;;;;;;;5076504;28;20237;-83
2021/04/29 00:57:37;;;;;;;7.60;6.97;;;;;;;;;;5076581;28;20187;-83
2021/04/29 01:00:05;;;;;;;7.30;6.80;;;;;;;;;;5058534;28;20203;-84
2021/04/29 01:02:31;;;;;;;7.67;6.83;;;;;;;;;;5058755;28;20259;-83
2021/04/29 01:05:00;;;;;;;9.57;7.27;;;;;;;;;;5058565;28;20183;-83
2021/04/29 01:07:28;;;;;;;7.07;6.47;;;;;;;;;;5055298;28;20255;-83
2021/04/29 01:10:01;;;;;;;9.10;6.93;;;;;;;;;;5055292;28;20199;-83
2021/04/29 01:12:32;;;;;;;7.33;6.73;;;;;;;;;;5055370;28;20190;-83
2021/04/29 01:14:58;;;;;;;7.67;7.00;;;;;;;;;;5054844;28;20242;-84
2021/04/29 01:17:25;;;;;;;7.47;6.73;;;;;;;;;;5056768;28;20199;-83
2021/04/29 01:19:52;;;;;;;7.17;6.57;;;;;;;;;;5056585;28;20602;-84
2021/04/29 01:22:18;;;;;;;7.63;6.93;;;;;;;;;;5055220;28;20924;-84
2021/04/29 01:24:47;;;;;;;7.50;6.80;;;;;;;;;;5055054;28;20214;-84
2021/04/29 01:27:15;;;;;;;7.67;6.93;;;;;;;;;;5055146;28;20242;-84
2021/04/29 01:29:42;;;;;;;7.57;6.87;;;;;;;;;;5054569;28;20210;-84
2021/04/29 01:32:08;;;;;;;7.13;6.43;;;;;;;;;;5055184;28;20554;-84
2021/04/29 01:34:37;;;;;;;7.60;6.80;;;;;;;;;;5055052;28;20219;-84
2021/04/29 01:37:04;;;;;;;7.40;6.80;;;;;;;;;;5056175;28;20252;-84
2021/04/29 01:39:30;;;;;;;7.93;7.13;;;;;;;;;;5054754;28;20192;-84
2021/04/29 01:41:56;;;;;;;7.43;6.73;;;;;;;;;;5054409;28;20227;-84
2021/04/29 01:44:24;;;;;;;7.23;6.70;;;;;;;;;;5056146;28;20199;-84
2021/04/29 01:46:51;;;;;;;7.17;6.47;;;;;;;;;;5055939;28;20952;-83
2021/04/29 01:49:18;;;;;;;7.17;6.63;;;;;;;;;;5054951;28;20200;-84
2021/04/29 01:51:45;;;;;;;8.27;6.43;;;;;;;;;;5054656;28;20187;-83
2021/04/29 01:54:12;;;;;;;6.43;5.93;;;;;;;;;;5054132;28;20235;-83
2021/04/29 01:56:38;;;;;;;6.23;5.70;;;;;;;;;;5055797;28;20218;-83
2021/04/29 01:59:05;;;;;;;7.60;6.00;;;;;;;;;;5055660;28;20235;-83
2021/04/29 02:01:32;;;;;;;6.23;5.73;;;;;;;;;;5055713;28;20688;-83
2021/04/29 02:03:58;;;;;;;6.07;5.57;;;;;;;;;;5055440;28;20212;-83
2021/04/29 02:06:24;;;;;;;5.53;4.80;;;;;;;;;;5054014;28;20223;-83
2021/04/29 02:08:50;;;;;;;5.50;5.10;;;;;;;;;;5055059;28;20238;-83
2021/04/29 02:11:16;;;;;;;5.57;5.07;;;;;;;;;;5055109;28;20211;-83
2021/04/29 02:13:43;;;;;;;8.37;5.30;;;;;;;;;;5053845;28;20225;-83
2021/04/29 02:16:12;;;;;;;5.17;4.67;;;;;;;;;;5070340;28;20273;-83
2021/04/29 02:18:43;;;;;;;6.47;5.30;;;;;;;;;;5055439;28;20171;-83
2021/04/29 02:21:12;;;;;;;5.20;4.60;;;;;;;;;;5053947;28;20214;-83
2021/04/29 02:23:38;;;;;;;6.80;5.40;;;;;;;;;;5053733;28;20187;-82
2021/04/29 02:26:05;;;;;;;6.63;5.77;;;;;;;;;;5053484;28;20223;-82
2021/04/29 02:28:31;;;;;;;5.53;5.03;;;;;;;;;;5053663;28;20253;-82
2021/04/29 02:30:58;;;;;;;5.47;4.97;;;;;;;;;;5053000;28;20200;-82
2021/04/29 02:33:24;;;;;;;5.77;5.37;;;;;;;;;;5053501;28;20667;-82
2021/04/29 02:35:51;;;;;;;5.90;5.40;;;;;;;;;;5053220;28;20262;-82
2021/04/29 02:38:18;;;;;;;6.00;5.40;;;;;;;;;;5054484;28;20211;-82
2021/04/29 02:40:44;;;;;;;6.50;5.63;;;;;;;;;;5054801;28;20225;-82
2021/04/29 02:43:11;;;;;;;5.77;5.27;;;;;;;;;;5054713;28;20238;-82
2021/04/29 02:45:37;;;;;;;6.73;6.23;;;;;;;;;;5054508;28;20930;-82
2021/04/29 02:48:04;;;;;;;6.80;6.20;;;;;;;;;;5053101;28;20203;-82
2021/04/29 02:50:30;;;;;;;6.53;6.03;;;;;;;;;;5053148;28;20720;-82
2021/04/29 02:52:58;;;;;;;6.93;6.00;;;;;;;;;;5053314;28;20199;-82
2021/04/29 02:55:25;;;;;;;6.10;5.50;;;;;;;;;;5052600;28;20273;-82
2021/04/29 02:57:58;;;;;;;7.00;5.70;;;;;;;;;;5052928;28;20722;-82
2021/04/29 03:00:25;;;;;;;6.40;5.80;;;;;;;;;;5052554;28;20269;-82
2021/04/29 03:02:51;;;;;;;8.37;6.27;;;;;;;;;;5054404;28;20179;-82
2021/04/29 03:05:17;;;;;;;6.50;6.00;;;;;;;;;;5051983;28;20204;-81
2021/04/29 03:07:43;;;;;;;6.63;6.13;;;;;;;;;;5036666;28;20235;-81
2021/04/29 03:10:11;;;;;;;6.20;5.53;;;;;;;;;;5032980;28;20271;-81
2021/04/29 03:12:38;;;;;;;6.53;5.93;;;;;;;;;;5034419;28;20243;-81
2021/04/29 03:15:05;;;;;;;6.13;5.30;;;;;;;;;;5032756;28;20623;-81
2021/04/29 03:17:31;;;;;;;6.43;5.60;;;;;;;;;;5049276;28;20203;-83
2021/04/29 03:19:57;;;;;;;6.20;5.57;;;;;;;;;;5048985;28;20254;-82
2021/04/29 03:22:23;;;;;;;6.20;5.60;;;;;;;;;;5032654;28;20204;-83
2021/04/29 03:24:49;;;;;;;5.93;5.10;;;;;;;;;;5031740;28;20729;-81
2021/04/29 03:27:16;;;;;;;5.37;4.90;;;;;;;;;;5032457;28;20224;-81
2021/04/29 03:29:43;;;;;;;6.83;5.40;;;;;;;;;;5032557;28;20595;-82
2021/04/29 03:32:09;;;;;;;5.93;5.33;;;;;;;;;;5032271;28;20208;-80
2021/04/29 03:34:36;;;;;;;5.43;4.60;;;;;;;;;;5032280;28;20204;-81
2021/04/29 03:37:02;;;;;;;5.13;4.70;;;;;;;;;;5032456;28;20188;-80
2021/04/29 03:39:28;;;;;;;5.27;4.83;;;;;;;;;;5033445;28;20216;-81
2021/04/29 03:41:54;;;;;;;5.07;4.63;;;;;;;;;;5032133;28;20204;-82
2021/04/29 03:44:21;;;;;;;6.47;4.87;;;;;;;;;;5033288;28;20243;-80
2021/04/29 03:46:47;;;;;;;4.90;4.47;;;;;;;;;;5033675;28;20211;-81
2021/04/29 03:49:13;;;;;;;5.40;4.90;;;;;;;;;;5033337;28;20573;-83
2021/04/29 03:51:40;;;;;;;6.87;4.97;;;;;;;;;;5033400;28;20617;-81
2021/04/29 03:54:06;;;;;;;5.97;4.83;;;;;;;;;;5031899;28;20224;-81
2021/04/29 03:56:32;;;;;;;5.03;4.47;;;;;;;;;;5033371;28;20326;-81
2021/04/29 03:58:58;;;;;;;7.43;5.10;;;;;;;;;;5032082;28;20235;-82
2021/04/29 04:01:25;;;;;;;6.23;4.93;;;;;;;;;;5048434;28;20611;-82
2021/04/29 04:03:51;;;;;;;4.87;4.47;;;;;;;;;;5031932;28;20204;-82
2021/04/29 04:06:17;;;;;;;5.17;4.60;;;;;;;;;;5041206;28;20265;-82
2021/04/29 04:08:43;;;;;;;5.83;5.20;;;;;;;;;;5055082;28;20198;-81
2021/04/29 04:11:10;;;;;;;6.67;5.10;;;;;;;;;;5055498;28;20241;-82
2021/04/29 04:13:36;;;;;;;6.20;5.00;;;;;;;;;;5073252;28;20237;-82
2021/04/29 04:16:03;;;;;;;6.13;5.17;;;;;;;;;;5054862;28;20246;-81
2021/04/29 04:18:30;;;;;;;5.60;5.10;;;;;;;;;;5075245;28;20186;-82
2021/04/29 04:20:56;;;;;;;5.00;4.60;;;;;;;;;;5059498;28;20209;-81
2021/04/29 04:23:22;;;;;;;5.13;4.80;;;;;;;;;;5076751;28;20238;-80
2021/04/29 04:25:48;;;;;;;5.80;4.90;;;;;;;;;;5076931;28;20241;-81
2021/04/29 04:28:14;;;;;;;5.00;4.47;;;;;;;;;;5059095;28;20218;-81
2021/04/29 04:30:41;;;;;;;4.80;4.43;;;;;;;;;;5058708;28;20213;-81
2021/04/29 04:33:07;;;;;;;4.40;3.93;;;;;;;;;;5059112;28;20202;-80
2021/04/29 04:35:34;;;;;;;4.37;4.07;;;;;;;;;;5076731;28;20260;-81
2021/04/29 04:38:00;;;;;;;4.40;4.10;;;;;;;;;;5059179;28;20202;-81
2021/04/29 04:40:26;;;;;;;4.47;4.07;;;;;;;;;;5058920;28;20224;-80
2021/04/29 04:42:52;;;;;;;5.83;4.70;;;;;;;;;;5058597;28;20222;-83
2021/04/29 04:45:19;;;;;;;4.27;3.97;;;;;;;;;;5058797;28;20189;-82
2021/04/29 04:47:45;;;;;;;4.80;4.40;;;;;;;;;;5058957;28;20213;-79
2021/04/29 04:50:11;;;;;;;5.77;4.40;;;;;;;;;;5059009;28;20210;-81
2021/04/29 04:52:38;;;;;;;4.40;4.00;;;;;;;;;;5058713;28;20206;-82
2021/04/29 04:55:05;;;;;;;4.80;4.40;;;;;;;;;;5075372;28;20295;-81
2021/04/29 04:57:31;;;;;;;4.73;4.37;;;;;;;;;;5058267;28;20237;-82
2021/04/29 04:59:57;;;;;;;5.03;4.63;;;;;;;;;;5058582;28;20199;-81
2021/04/29 05:02:24;;;;;;;6.70;4.50;;;;;;;;;;5058522;28;20554;-81
2021/04/29 05:04:50;;;;;;;5.30;4.83;;;;;;;;;;5075995;28;20207;-82
2021/04/29 05:07:16;;;;;;;4.63;4.30;;;;;;;;;;5042919;28;20327;-80
2021/04/29 05:09:43;;;;;;;5.40;4.90;;;;;;;;;;5034866;28;20236;-80
2021/04/29 05:12:10;;;;;;;5.43;5.00;;;;;;;;;;5036556;28;20227;-80
2021/04/29 05:14:36;;;;;;;5.73;5.30;;;;;;;;;;5034408;28;20623;-80
2021/04/29 05:17:02;;;;;;;6.17;5.57;;;;;;;;;;5034632;28;20587;-80
2021/04/29 05:19:29;;;;;;;6.37;5.80;;;;;;;;;;5034477;28;20672;-80
2021/04/29 05:21:55;;;;;;;6.07;5.17;;;;;;;;;;5034659;28;20207;-81
2021/04/29 05:24:21;;;;;;;6.67;6.00;;;;;;;;;;5051353;28;20232;-81
2021/04/29 05:26:48;;;;;;;6.40;5.80;;;;;;;;;;5034541;28;20231;-80
2021/04/29 05:29:14;;;;;;;6.33;5.73;;;;;;;;;;5034295;28;20563;-81
2021/04/29 05:31:40;;;;;;;6.50;5.77;;;;;;;;;;5036080;28;20695;-81
2021/04/29 05:34:07;;;;;;;6.13;5.53;;;;;;;;;;5036339;28;20231;-82
2021/04/29 05:36:33;;;;;;;5.80;5.23;;;;;;;;;;5035019;28;20243;-89
2021/04/29 05:39:01;;;;;;;6.80;6.10;;;;;;;;;;5035377;28;20204;-96
2021/04/29 05:41:27;;;;;;;6.20;5.70;;;;;;;;;;5034956;28;20242;-86
2021/04/29 05:43:54;;;;;;;7.27;5.93;;;;;;;;;;5034520;28;20258;-81
2021/04/29 05:46:20;;;;;;;6.93;6.23;;;;;;;;;;5035849;28;20676;-82
2021/04/29 05:48:47;;;;;;;6.77;6.07;;;;;;;;;;5034470;28;20664;-83
2021/04/29 05:51:13;;;;;;;10.13;6.43;;;;;;;;;;5034121;28;20204;-81
2021/04/29 05:53:39;;;;;;;6.67;6.00;;;;;;;;;;5034259;28;20555;-81
2021/04/29 05:56:06;;;;;;;6.40;5.90;;;;;;;;;;5035477;28;20726;-82
2021/04/29 05:58:32;;;;;;;6.87;6.27;;;;;;;;;;5033667;28;20208;-83
2021/04/29 06:00:59;;;;;;;7.00;6.30;;;;;;;;;;5034147;28;20254;-84
2021/04/29 06:03:25;;;;;;;7.30;6.50;;;;;;;;;;5034365;28;20196;-83
2021/04/29 06:05:51;;;;;;;6.90;6.20;;;;;;;;;;5033888;28;20223;-83
2021/04/29 06:08:17;;;;;;;6.77;5.87;;;;;;;;;;5057212;28;20693;-82
2021/04/29 06:10:43;;;;;;;6.23;5.50;;;;;;;;;;5074147;28;20198;-83
2021/04/29 06:13:10;;;;;;;7.13;6.53;;;;;;;;;;5057278;28;20642;-84
2021/04/29 06:15:36;;;;;;;6.90;6.20;;;;;;;;;;5056941;28;20729;-84
2021/04/29 06:18:04;;;;;;;7.77;6.30;;;;;;;;;;5074118;28;20672;-84
2021/04/29 06:20:30;;;;;;;7.43;6.73;;;;;;;;;;5057198;28;20203;-84
2021/04/29 06:22:56;;;;;;;7.90;6.20;;;;;;;;;;5057163;28;20202;-84
2021/04/29 06:25:23;;;;;;;8.50;6.40;;;;;;;;;;5057026;28;20650;-82
2021/04/29 06:27:49;;;;;;;6.77;6.20;;;;;;;;;;5074835;28;20230;-84
2021/04/29 06:30:17;;;;;;;7.57;6.20;;;;;;;;;;5057265;28;20230;-82
2021/04/29 06:32:43;;;;;;;7.47;6.10;;;;;;;;;;5074842;28;20211;-84
2021/04/29 06:35:10;;;;;;;7.40;6.13;;;;;;;;;;5057257;28;20257;-84
2021/04/29 06:37:37;;;;;;;7.20;5.67;;;;;;;;;;5073380;28;20198;-83
2021/04/29 06:40:03;;;;;;;6.60;6.00;;;;;;;;;;5056496;28;20206;-83
2021/04/29 06:42:29;;;;;;;6.30;5.70;;;;;;;;;;5056897;28;20210;-83
2021/04/29 06:44:56;;;;;;;9.83;5.60;;;;;;;;;;5056476;28;20689;-81
2021/04/29 06:47:26;;;;;;;6.83;5.27;;;;;;;;;;5074566;28;20206;-82
2021/04/29 06:49:52;;;;;;;6.63;5.47;;;;;;;;;;5056956;28;20657;-84
2021/04/29 06:52:20;;;;;;;7.20;5.77;;;;;;;;;;5056646;28;20245;-81
2021/04/29 06:54:46;;;;;;;6.40;5.73;;;;;;;;;;5056542;28;20564;-83
2021/04/29 06:57:13;;;;;;;6.20;5.70;;;;;;;;;;5074754;28;20210;-83
2021/04/29 06:59:39;;;;;;;5.70;5.20;;;;;;;;;;5073422;28;20195;-84
2021/04/29 07:02:05;;;;;;;5.77;5.27;;;;;;;;;;5056394;28;20206;-81
2021/04/29 07:04:31;;;;;;;6.00;5.40;;;;;;;;;;5056127;28;20228;-81
2021/04/29 07:06:57;;;;;;;5.87;5.37;;;;;;;;;;5072583;28;20256;-79
2021/04/29 07:09:24;;;;;;;5.40;5.00;;;;;;;;;;5074103;28;20185;-80
2021/04/29 07:11:52;;;;;;;5.80;5.17;;;;;;;;;;5074083;28;20234;-81
2021/04/29 07:14:18;;;;;;;4.83;4.50;;;;;;;;;;5056561;28;20675;-80
2021/04/29 07:16:44;;;;;;;4.60;3.90;;;;;;;;;;5056360;28;20249;-80
2021/04/29 07:19:10;;;;;;;4.90;4.50;;;;;;;;;;5056117;28;20190;-80
2021/04/29 07:21:36;;;;;;;4.70;4.30;;;;;;;;;;5073957;28;20179;-82
2021/04/29 07:24:03;;;;;;;5.97;5.23;;;;;;;;;;5074281;28;20206;-82
2021/04/29 07:26:30;;;;;;;5.03;4.63;;;;;;;;;;5055607;28;20226;-85
2021/04/29 07:28:56;;;;;;;5.00;4.63;;;;;;;;;;5074559;28;20186;-86
2021/04/29 07:31:22;;;;;;;5.43;4.90;;;;;;;;;;5056068;28;20213;-82
2021/04/29 07:33:48;;;;;;;7.10;4.40;;;;;;;;;;5073864;28;20179;-83
2021/04/29 07:36:14;;;;;;;4.90;4.50;;;;;;;;;;5055938;28;20202;-83
2021/04/29 07:38:41;;;;;;;4.90;4.50;;;;;;;;;;5073854;28;20187;-83
2021/04/29 07:41:07;;;;;;;5.00;4.60;;;;;;;;;;5056140;28;20586;-83
2021/04/29 07:43:34;;;;;;;5.13;4.63;;;;;;;;;;5056215;28;20187;-84
2021/04/29 07:46:00;;;;;;;5.13;4.63;;;;;;;;;;5056021;28;20186;-82
2021/04/29 07:48:26;;;;;;;4.63;4.23;;;;;;;;;;5055850;28;20565;-85
2021/04/29 07:50:52;;;;;;;6.17;4.87;;;;;;;;;;5055802;28;20187;-86
2021/04/29 07:53:19;;;;;;;5.40;4.97;;;;;;;;;;5055881;28;20206;-85
2021/04/29 07:55:45;;;;;;;5.37;4.87;;;;;;;;;;5056125;28;20214;-85
2021/04/29 07:58:11;;;;;;;5.03;4.60;;;;;;;;;;5055632;28;20225;-83
2021/04/29 08:00:38;;;;;;;5.80;5.17;;;;;;;;;;5056057;28;20614;-85
2021/04/29 08:03:05;;;;;;;6.40;4.57;;;;;;;;;;5055820;28;20202;-84
2021/04/29 08:05:31;;;;;;;5.60;4.97;;;;;;;;;;5072473;28;20225;-82
2021/04/29 08:07:58;;;;;;;6.83;5.03;;;;;;;;;;5035192;28;20244;-83
2021/04/29 08:10:24;;;;;;;5.73;5.00;;;;;;;;;;5032604;28;20223;-82
2021/04/29 08:12:50;;;;;;;5.97;5.13;;;;;;;;;;5048841;28;20208;-83
2021/04/29 08:15:17;;;;;;;6.13;4.90;;;;;;;;;;5032391;28;20192;-81
2021/04/29 08:17:44;;;;;;;7.47;5.43;;;;;;;;;;5032413;28;20204;-82
2021/04/29 08:20:11;;;;;;;6.63;5.37;;;;;;;;;;5032905;28;20200;-83
2021/04/29 08:22:37;;;;;;;7.20;5.40;;;;;;;;;;5031819;28;20235;-82
2021/04/29 08:25:04;;;;;;;5.90;5.23;;;;;;;;;;5033596;28;20196;-84
2021/04/29 08:27:31;;;;;;;5.77;5.23;;;;;;;;;;5032357;28;20228;-87
2021/04/29 08:29:57;;;;;;;5.57;5.17;;;;;;;;;;5032375;28;20682;-84
2021/04/29 08:32:23;;;;;;;5.90;5.17;;;;;;;;;;5031898;28;20269;-87
2021/04/29 08:34:50;;;;;;;5.33;4.90;;;;;;;;;;5032229;28;20556;-86
2021/04/29 08:37:17;;;;;;;5.60;5.20;;;;;;;;;;5048934;28;20215;-82
2021/04/29 08:39:44;;;;;;;4.90;4.50;;;;;;;;;;5032505;28;20192;-87
2021/04/29 08:42:12;;;;;;;5.03;4.63;;;;;;;;;;5033643;28;20239;-87
2021/04/29 08:44:38;;;;;;;5.07;4.50;;;;;;;;;;5033759;28;20180;-86
2021/04/29 08:47:04;;;;;;;5.20;4.70;;;;;;;;;;5031812;28;20238;-86
2021/04/29 08:49:31;;;;;;;5.10;4.67;;;;;;;;;;5032275;28;20204;-87
2021/04/29 08:51:58;;;;;;;5.67;4.90;;;;;;;;;;5032263;28;20192;-86
2021/04/29 08:54:24;;;;;;;5.23;4.57;;;;;;;;;;5032657;28;20211;-85
2021/04/29 08:56:51;;;;;;;5.07;4.67;;;;;;;;;;5032140;28;20239;-83
2021/04/29 08:59:18;;;;;;;5.40;4.87;;;;;;;;;;5031702;28;20211;-85
2021/04/29 09:01:44;;;;;;;5.53;5.13;;;;;;;;;;5048613;28;20197;-84
2021/04/29 09:04:12;;;;;;;5.70;5.10;;;;;;;;;;5033618;28;20211;-87
2021/04/29 09:06:38;;;;;;;5.90;5.30;;;;;;;;;;5042306;28;20238;-82
2021/04/29 09:09:05;;;;;;;5.33;4.93;;;;;;;;;;5055728;28;20192;-84
2021/04/29 09:11:32;;;;;;;5.70;5.20;;;;;;;;;;5055544;28;20558;-84
2021/04/29 09:13:59;;;;;;;5.90;5.10;;;;;;;;;;5072276;28;20203;-85
2021/04/29 09:16:36;;;;;;;5.50;5.00;;;;;;;;;;5055717;28;20265;-85
2021/04/29 09:19:03;;;;;;;5.80;5.40;;;;;;;;;;5055490;28;20240;-86
2021/04/29 09:21:31;;;;;;;7.27;6.23;;;;;;;;;;5055688;28;20234;-84
2021/04/29 09:23:57;;;;;;;8.07;5.93;;;;;;;;;;5055694;28;20191;-86
2021/04/29 09:26:24;;;;;;;5.80;5.30;;;;;;;;;;5056370;28;20273;-84
2021/04/29 09:28:53;;;;;;;6.67;5.93;;;;;;;;;;5055245;28;20214;-87
2021/04/29 09:31:21;;;;;;;6.10;5.60;;;;;;;;;;5056589;28;20176;-86
2021/04/29 09:33:48;;;;;;;7.43;5.85;;;;;;;;;;5055241;28;20751;-84
2021/04/29 09:36:21;;;;;;;7.17;5.97;;;;;;;;;;5056311;28;20223;-86
2021/04/29 09:38:51;;;;;;;6.10;5.50;;;;;;;;;;5055150;28;20207;-81
2021/04/29 09:41:20;;;;;;;6.20;5.60;;;;;;;;;;5055306;28;20195;-82
2021/04/29 09:43:51;;;;;;;7.47;5.77;;;;;;;;;;5054842;28;20230;-83
2021/04/29 09:46:17;;;;;;;5.77;5.27;;;;;;;;;;5055441;28;20245;-83
2021/04/29 09:48:43;;;;;;;6.20;5.60;;;;;;;;;;5055741;28;20219;-84
2021/04/29 09:51:10;;;;;;;6.13;5.57;;;;;;;;;;5055321;28;20196;-86
2021/04/29 09:53:40;;;;;;;5.93;5.43;;;;;;;;;;5056470;28;20223;-84
2021/04/29 09:56:06;;;;;;;7.77;5.50;;;;;;;;;;5055169;28;20575;-86
2021/04/29 09:58:33;;;;;;;6.63;5.97;;;;;;;;;;5054708;28;20199;-86
2021/04/29 10:01:00;;;;;;;7.57;5.83;;;;;;;;;;5054996;28;20195;-84
2021/04/29 10:03:26;;;;;;;6.43;5.83;;;;;;;;;;5056812;28;20176;-88
2021/04/29 10:05:54;;;;;;;6.20;5.60;;;;;;;;;;5054285;28;20249;-86
2021/04/29 10:08:22;;;;;;;5.33;4.93;;;;;;;;;;5054515;28;20227;-84
2021/04/29 10:10:49;;;;;;;5.93;5.20;;;;;;;;;;5055159;28;20223;-86
2021/04/29 10:13:17;;;;;;;6.27;5.70;;;;;;;;;;5055119;28;20187;-83
2021/04/29 10:15:44;;;;;;;7.10;5.47;;;;;;;;;;5056046;28;20207;-81
2021/04/29 10:18:12;;;;;;;5.77;5.27;;;;;;;;;;5054189;28;20226;-84
2021/04/29 10:20:39;;;;;;;6.50;5.07;;;;;;;;;;5054515;28;20511;-85
2021/04/29 10:23:06;;;;;;;5.57;5.17;;;;;;;;;;5054383;28;20195;-82
2021/04/29 10:25:33;;;;;;;5.63;5.07;;;;;;;;;;5054145;28;20222;-87
2021/04/29 10:28:00;;;;;;;6.83;5.23;;;;;;;;;;5054597;28;20218;-86
2021/04/29 10:30:31;;;;;;;6.33;5.20;;;;;;;;;;5054450;28;20199;-85
2021/04/29 10:32:57;;;;;;;10.07;8.83;;;;;;;;;;5054502;28;20211;-84
2021/04/29 10:35:26;;;;;;;8.07;5.50;;;;;;;;;;5053815;28;20203;-83
2021/04/29 10:37:53;;;;;;;7.20;4.87;;;;;;;;;;5055546;28;20231;-89
2021/04/29 10:40:29;;;;;;;6.77;4.53;;;;;;;;;;5055607;28;20568;-87
2021/04/29 10:42:56;;;;;;;5.30;4.80;;;;;;;;;;5055546;28;20674;-87
2021/04/29 10:45:22;;;;;;;4.83;4.40;;;;;;;;;;5055204;28;20214;-87
2021/04/29 10:47:48;;;;;;;4.80;4.40;;;;;;;;;;5054373;28;20188;-88
2021/04/29 10:50:15;;;;;;;5.57;5.07;;;;;;;;;;5055817;28;20180;-88
2021/04/29 10:52:49;;;;;;;5.10;4.70;;;;;;;;;;5070982;28;20203;-90
2021/04/29 10:55:22;;;;;;;5.23;4.83;;;;;;;;;;5055351;28;20176;-85
2021/04/29 10:57:48;;;;;;;6.03;4.03;;;;;;;;;;5054661;28;20228;-85
2021/04/29 11:00:15;;;;;;;6.50;4.27;;;;;;;;;;5054586;28;20210;-85
2021/04/29 11:02:41;;;;;;;3.90;3.57;;;;;;;;;;5053484;28;20211;-89
2021/04/29 11:05:08;;;;;;;5.37;4.13;;;;;;;;;;5053974;28;20207;-88
2021/04/29 11:07:44;;;;;;;5.60;3.30;;;;;;;;;;5053431;28;20227;-84
2021/04/29 11:10:12;;;;;;;3.80;3.00;;;;;;;;;;5054163;28;20191;-89
2021/04/29 11:12:40;;;;;;;4.60;3.40;;;;;;;;;;5054440;28;20196;-90
2021/04/29 11:15:18;;;;;;;3.80;3.40;;;;;;;;;;5055018;28;20215;-86
2021/04/29 11:17:44;;;;;;;3.87;3.47;;;;;;;;;;5053934;28;20219;-88
2021/04/29 11:20:10;;;;;;;4.67;3.20;;;;;;;;;;5054247;28;20718;-88
2021/04/29 11:22:37;;;;;;;4.13;3.50;;;;;;;;;;5054964;28;20207;-88
2021/04/29 11:25:07;;;;;;;3.33;2.97;;;;;;;;;;5070438;28;20199;-88
2021/04/29 11:27:34;;;;;;;4.80;2.90;;;;;;;;;;5052878;28;20215;-87
2021/04/29 11:30:03;;;;;;;4.40;3.03;;;;;;;;;;5054615;28;20285;-88
2021/04/29 11:32:32;;;;;;;3.97;2.83;;;;;;;;;;5053586;28;20699;-87
2021/04/29 11:34:59;;;;;;;5.93;3.57;;;;;;;;;;5053373;28;20264;-85
2021/04/29 11:37:25;;;;;;;3.70;3.40;;;;;;;;;;5054096;28;20223;-87
2021/04/29 11:39:56;;;;;;;5.00;3.73;;;;;;;;;;5052294;28;20563;-86
2021/04/29 11:42:23;;;;;;;3.53;3.23;;;;;;;;;;5054011;28;20564;-86
2021/04/29 11:44:50;;;;;;;3.33;3.13;;;;;;;;;;5053764;28;20243;-86
2021/04/29 11:47:17;;;;;;;6.33;3.10;;;;;;;;;;5052807;28;20238;-85
2021/04/29 11:49:43;;;;;;;3.03;2.77;;;;;;;;;;5052819;28;20195;-86
2021/04/29 11:52:09;;;;;;;6.27;2.73;;;;;;;;;;5052797;28;20195;-86
2021/04/29 11:54:45;;;;;;;4.70;2.63;;;;;;;;;;5052527;28;20207;-84
2021/04/29 11:57:13;;;;;;;2.53;2.33;;;;;;;;;;5052867;28;20242;-85
2021/04/29 11:59:39;;;;;;;3.30;2.20;;;;;;;;;;5052342;28;20245;-89
2021/04/29 12:02:06;;;;;;;2.43;2.13;;;;;;;;;;5052952;28;20195;-82
2021/04/29 12:04:33;;;;;;;2.63;1.93;;;;;;;;;;5052398;28;20199;-83
2021/04/29 12:07:00;;;;;;;2.77;2.37;;;;;;;;;;5045994;28;20220;-83
2021/04/29 12:09:27;;;;;;;2.17;2.07;;;;;;;;;;5033496;28;20244;-85
2021/04/29 12:11:54;;;;;;;5.90;2.57;;;;;;;;;;5032665;28;20192;-85
2021/04/29 12:14:20;;;;;;;2.70;2.50;;;;;;;;;;5049513;28;20255;-85
2021/04/29 12:16:47;;;;;;;4.03;2.37;;;;;;;;;;5032844;28;20247;-84
2021/04/29 12:19:14;;;;;;;6.23;2.30;;;;;;;;;;5033828;28;20208;-83
2021/04/29 12:21:45;;;;;;;5.83;2.77;;;;;;;;;;5033131;28;20226;-85
2021/04/29 12:24:13;;;;;;;2.80;2.60;;;;;;;;;;5033225;28;20242;-86
2021/04/29 12:26:40;;;;;;;8.97;2.73;;;;;;;;;;5032909;28;20254;-87
2021/04/29 12:29:07;;;;;;;2.63;2.40;;;;;;;;;;5033334;28;20714;-87
2021/04/29 12:31:34;;;;;;;6.17;2.20;;;;;;;;;;5032858;28;20200;-87
2021/04/29 12:34:03;;;;;;;4.80;2.30;;;;;;;;;;5016506;28;20207;-87
2021/04/29 12:36:31;;;;;;;2.27;2.10;;;;;;;;;;5032566;28;20270;-85
2021/04/29 12:38:57;;;;;;;2.53;2.00;;;;;;;;;;5034314;28;20255;-87
2021/04/29 12:41:24;;;;;;;3.57;2.50;;;;;;;;;;5037431;28;20192;-90
2021/04/29 12:44:03;;;;;;;3.03;2.10;;;;;;;;;;5036792;28;20238;-88
2021/04/29 12:46:30;;;;;;;6.93;2.20;;;;;;;;;;5036520;28;20192;-86
2021/04/29 12:48:56;;;;;;;2.30;2.10;;;;;;;;;;5037074;28;20802;-85
2021/04/29 12:51:22;;;;;;;2.37;2.27;;;;;;;;;;5036019;28;20250;-86
2021/04/29 12:53:54;;;;;;;2.00;1.90;;;;;;;;;;5052838;28;20192;-86
2021/04/29 12:56:25;;;;;;;2.70;2.20;;;;;;;;;;5053018;28;20239;-85
2021/04/29 12:58:51;;;;;;;2.60;2.00;;;;;;;;;;5036416;28;20528;-88
2021/04/29 13:01:21;;;;;;;2.93;2.37;;;;;;;;;;5053110;28;20188;-86
2021/04/29 13:03:49;;;;;;;2.57;2.47;;;;;;;;;;5036591;28;20640;-86
2021/04/29 13:06:15;;;;;;;2.33;2.23;;;;;;;;;;5038957;28;20217;-88
2021/04/29 13:08:49;;;;;;;2.03;1.93;;;;;;;;;;5059363;28;20221;-87
2021/04/29 13:11:29;;;;;;;4.43;2.00;;;;;;;;;;5059348;28;20233;-88
2021/04/29 13:13:59;;;;;;;2.20;1.90;;;;;;;;;;5077587;28;20174;-86
2021/04/29 13:16:27;;;;;;;1.97;1.63;;;;;;;;;;5059198;28;20246;-86
2021/04/29 13:18:54;;;;;;;1.67;1.53;;;;;;;;;;5076260;28;20203;-88
2021/04/29 13:21:20;;;;;;;1.90;1.77;;;;;;;;;;5059463;28;20199;-87
2021/04/29 13:23:46;;;;;;;2.40;1.63;;;;;;;;;;5059039;28;20602;-85
2021/04/29 13:26:14;;;;;;;2.37;2.07;;;;;;;;;;5058895;28;20218;-84
2021/04/29 13:28:41;;;;;;;4.30;2.20;;;;;;;;;;5059271;28;20658;-91
2021/04/29 13:31:07;;;;;;;2.33;2.13;;;;;;;;;;5059048;28;20245;-85
2021/04/29 13:33:34;;;;;;;3.20;2.97;;;;;;;;;;5059014;28;20205;-84
2021/04/29 13:36:00;;;;;;;2.57;2.33;;;;;;;;;;5059110;28;20938;-86
2021/04/29 13:38:26;;;;;;;3.40;2.50;;;;;;;;;;5058550;28;20252;-87
2021/04/29 13:40:52;;;;;;;4.00;2.47;;;;;;;;;;5058994;28;20191;-85
2021/04/29 13:43:19;;;;;;;3.53;2.90;;;;;;;;;;5058846;28;20194;-87
2021/04/29 13:45:45;;;;;;;3.10;2.90;;;;;;;;;;5058693;28;20191;-84
2021/04/29 13:48:12;;;;;;;3.67;3.00;;;;;;;;;;5058884;28;20201;-84
2021/04/29 13:50:38;;;;;;;2.70;2.50;;;;;;;;;;5058530;28;20261;-86
2021/04/29 13:53:04;;;;;;;3.20;2.97;;;;;;;;;;5076554;28;20175;-91
2021/04/29 13:55:30;;;;;;;3.20;2.93;;;;;;;;;;5076626;28;20207;-90
2021/04/29 13:57:57;;;;;;;3.40;2.87;;;;;;;;;;5059246;28;20222;-90
2021/04/29 14:00:24;;;;;;;3.50;3.23;;;;;;;;;;5076001;28;20195;-89
2021/04/29 14:02:51;;;;;;;8.37;3.10;;;;;;;;;;5059642;28;20194;-87
2021/04/29 14:05:17;;;;;;;3.23;2.90;;;;;;;;;;5058433;28;20531;-83
2021/04/29 14:07:46;;;;;;;3.97;2.97;;;;;;;;;;5075920;28;20249;-85
2021/04/29 14:10:12;;;;;;;3.40;3.10;;;;;;;;;;5058422;28;20206;-80
2021/04/29 14:12:39;;;;;;;5.28;2.97;;;;;;;;;;5074998;28;20207;-82
2021/04/29 14:15:07;;;;;;;4.07;3.20;;;;;;;;;;5058681;28;20187;-92
2021/04/29 14:17:33;;;;;;;4.55;3.20;;;;;;;;;;5044427;28;20709;-84
2021/04/29 14:20:00;;;;;;;3.22;2.95;;;;;;;;;;5055189;28;20647;-84
2021/04/29 14:22:26;;;;;;;3.13;2.90;;;;;;;;;;5038307;28;20214;-85
2021/04/29 14:24:52;;;;;;;3.35;2.85;;;;;;;;;;5038237;28;20242;-85
2021/04/29 14:27:18;;;;;;;2.80;2.60;;;;;;;;;;5037848;28;20223;-88
2021/04/29 14:29:45;;;;;;;4.70;2.90;;;;;;;;;;5054150;28;20203;-83
2021/04/29 14:32:11;;;;;;;2.97;2.70;;;;;;;;;;5037836;28;20188;-86
2021/04/29 14:34:37;;;;;;;3.40;2.83;;;;;;;;;;5037282;28;20241;-86
2021/04/29 14:37:04;;;;;;;2.78;2.58;;;;;;;;;;5055622;28;20739;-83
2021/04/29 14:39:30;;;;;;;3.20;3.00;;;;;;;;;;5037407;28;20245;-86
2021/04/29 14:41:58;;;;;;;3.20;2.80;;;;;;;;;;5054557;28;20203;-87